KVTN

Details ICAO KVTN
Name MILLER FLD
Region United States
Timezone America/Chicago (UTC-5.0)
Plans Departing 2
Arriving 5
Stats Elevation 2,591 ft / 790 m (AMSL)
Location 42.856746° -100.549159°
Runways 2
Magnetic Variation 5.721° E
Sunrise 2018-05-21 11:15:06 UTC / 2018-05-21 06:15:06 Local
Sunset 2018-05-22 02:05:22 UTC / 2018-05-21 21:05:22 Local
Advertisement - Login to hide

Runways

ID Width Length Bearing (true) Bearing (mag) Surface Threshold Offset Overrun Length
03 59 ft / 18 m 3,695 ft / 1,126 m 36.30° 30.58° Asphalt 0 ft / 0 m 0 ft / 0 m
14 98 ft / 30 m 4,713 ft / 1,437 m 145.60° 139.88° Concrete 0 ft / 0 m 292 ft / 89 m
21 59 ft / 18 m 3,695 ft / 1,126 m 216.30° 210.58° Asphalt 299 ft / 91 m 0 ft / 0 m
32 98 ft / 30 m 4,713 ft / 1,437 m 325.60° 319.88° Concrete 0 ft / 0 m 0 ft / 0 m

Map

Weather


0- 5 10 15 20 25 30 35+ Temperature / ° C

Clouds and Precipitation
Forecast for 2018-05-22 00:00 UTC. Updated 2 hours ago

Ground ~20,000 ft ~40,000 ft Winds

METAR

KVTN 220052Z AUTO 15010KT 10SM CLR 23/13 A2992 RMK AO2 SLP123 T02330128 $

TAF

TAF KVTN 212320Z 2200/2224 21013KT P6SM BKN060 FM220300 13006KT P6SM FEW050 SCT250 FM221500 14008KT P6SM SCT250 FM221900 12011G17KT P6SM SKC

Frequencies

Recorded 118.07 MHz ASOS
Unicom 122.80 MHz CTAF/UNICOM
Warning: Do not use this data for real-world aviation or navigation. No guarantee of current accuracy is given.